sensor_id;sensor_type;location;lat;lon;timestamp;P1;durP1;ratioP1;P2;durP2;ratioP2
36359;SDS011;22388;52.432;20.662;2023-04-10T00:01:34;27.42;;;16.63;;
36359;SDS011;22388;52.432;20.662;2023-04-10T00:06:31;24.45;;;16.60;;
36359;SDS011;22388;52.432;20.662;2023-04-10T00:08:57;25.25;;;16.33;;
36359;SDS011;22388;52.432;20.662;2023-04-10T00:11:24;24.33;;;15.85;;
36359;SDS011;22388;52.432;20.662;2023-04-10T00:13:50;22.30;;;15.82;;
36359;SDS011;22388;52.432;20.662;2023-04-10T00:16:16;23.10;;;16.23;;
36359;SDS011;22388;52.432;20.662;2023-04-10T00:18:41;23.30;;;16.15;;
36359;SDS011;22388;52.432;20.662;2023-04-10T00:21:07;26.42;;;15.68;;
36359;SDS011;22388;52.432;20.662;2023-04-10T00:23:32;22.85;;;14.10;;
36359;SDS011;22388;52.432;20.662;2023-04-10T00:25:59;21.58;;;14.90;;
36359;SDS011;22388;52.432;20.662;2023-04-10T00:28:25;20.95;;;15.10;;
36359;SDS011;22388;52.432;20.662;2023-04-10T00:30:52;27.58;;;16.67;;
36359;SDS011;22388;52.432;20.662;2023-04-10T00:33:17;24.08;;;15.32;;
36359;SDS011;22388;52.432;20.662;2023-04-10T00:35:43;22.70;;;15.15;;
36359;SDS011;22388;52.432;20.662;2023-04-10T00:38:09;21.80;;;15.80;;
36359;SDS011;22388;52.432;20.662;2023-04-10T00:40:34;23.88;;;16.15;;
36359;SDS011;22388;52.432;20.662;2023-04-10T00:43:00;22.70;;;15.43;;
36359;SDS011;22388;52.432;20.662;2023-04-10T00:45:25;24.58;;;16.80;;
36359;SDS011;22388;52.432;20.662;2023-04-10T00:47:51;23.77;;;15.18;;
36359;SDS011;22388;52.432;20.662;2023-04-10T00:50:18;25.23;;;15.45;;
36359;SDS011;22388;52.432;20.662;2023-04-10T00:52:44;22.85;;;15.07;;
36359;SDS011;22388;52.432;20.662;2023-04-10T00:55:10;21.55;;;14.13;;
36359;SDS011;22388;52.432;20.662;2023-04-10T00:57:36;22.52;;;15.45;;
36359;SDS011;22388;52.432;20.662;2023-04-10T01:00:02;20.25;;;13.02;;
36359;SDS011;22388;52.432;20.662;2023-04-10T01:02:29;21.58;;;14.85;;
36359;SDS011;22388;52.432;20.662;2023-04-10T01:04:54;23.55;;;14.52;;
36359;SDS011;22388;52.432;20.662;2023-04-10T01:07:36;22.05;;;15.55;;
36359;SDS011;22388;52.432;20.662;2023-04-10T01:10:37;21.35;;;14.68;;
36359;SDS011;22388;52.432;20.662;2023-04-10T01:13:22;21.15;;;14.65;;
36359;SDS011;22388;52.432;20.662;2023-04-10T01:16:06;19.33;;;13.52;;
36359;SDS011;22388;52.432;20.662;2023-04-10T01:21:07;23.70;;;15.35;;
36359;SDS011;22388;52.432;20.662;2023-04-10T01:26:07;25.40;;;15.05;;
36359;SDS011;22388;52.432;20.662;2023-04-10T01:31:19;26.45;;;17.20;;
36359;SDS011;22388;52.432;20.662;2023-04-10T01:33:50;24.05;;;16.67;;
36359;SDS011;22388;52.432;20.662;2023-04-10T01:36:20;25.35;;;16.92;;
36359;SDS011;22388;52.432;20.662;2023-04-10T01:38:48;24.98;;;16.65;;
36359;SDS011;22388;52.432;20.662;2023-04-10T01:41:16;23.98;;;16.42;;
36359;SDS011;22388;52.432;20.662;2023-04-10T01:43:43;24.38;;;16.15;;
36359;SDS011;22388;52.432;20.662;2023-04-10T01:46:12;25.42;;;16.05;;
36359;SDS011;22388;52.432;20.662;2023-04-10T01:48:38;23.95;;;16.17;;
36359;SDS011;22388;52.432;20.662;2023-04-10T01:51:05;25.80;;;16.63;;
36359;SDS011;22388;52.432;20.662;2023-04-10T01:53:32;22.52;;;16.77;;
36359;SDS011;22388;52.432;20.662;2023-04-10T01:55:59;24.75;;;16.15;;
36359;SDS011;22388;52.432;20.662;2023-04-10T01:58:27;24.85;;;17.52;;
36359;SDS011;22388;52.432;20.662;2023-04-10T02:00:52;22.77;;;15.18;;
36359;SDS011;22388;52.432;20.662;2023-04-10T02:03:18;24.15;;;15.27;;
36359;SDS011;22388;52.432;20.662;2023-04-10T02:08:56;27.05;;;16.27;;
36359;SDS011;22388;52.432;20.662;2023-04-10T02:11:51;24.15;;;15.32;;
36359;SDS011;22388;52.432;20.662;2023-04-10T02:14:20;21.05;;;14.68;;
36359;SDS011;22388;52.432;20.662;2023-04-10T02:16:48;23.73;;;15.23;;
36359;SDS011;22388;52.432;20.662;2023-04-10T02:19:17;21.98;;;15.68;;
36359;SDS011;22388;52.432;20.662;2023-04-10T02:21:43;22.38;;;14.98;;
36359;SDS011;22388;52.432;20.662;2023-04-10T02:24:09;23.00;;;15.05;;
36359;SDS011;22388;52.432;20.662;2023-04-10T02:26:45;21.90;;;15.95;;
36359;SDS011;22388;52.432;20.662;2023-04-10T02:29:11;25.48;;;16.65;;
36359;SDS011;22388;52.432;20.662;2023-04-10T02:31:37;21.58;;;15.38;;
36359;SDS011;22388;52.432;20.662;2023-04-10T02:34:03;24.10;;;16.05;;
36359;SDS011;22388;52.432;20.662;2023-04-10T02:36:29;26.92;;;16.85;;
36359;SDS011;22388;52.432;20.662;2023-04-10T02:38:55;24.38;;;15.73;;
36359;SDS011;22388;52.432;20.662;2023-04-10T02:41:20;27.27;;;17.20;;
36359;SDS011;22388;52.432;20.662;2023-04-10T02:43:46;21.98;;;14.98;;
36359;SDS011;22388;52.432;20.662;2023-04-10T02:46:12;25.73;;;18.00;;
36359;SDS011;22388;52.432;20.662;2023-04-10T02:48:37;22.52;;;16.10;;
36359;SDS011;22388;52.432;20.662;2023-04-10T02:51:03;26.52;;;17.67;;
36359;SDS011;22388;52.432;20.662;2023-04-10T02:53:29;23.95;;;17.30;;
36359;SDS011;22388;52.432;20.662;2023-04-10T02:55:54;24.08;;;14.70;;
36359;SDS011;22388;52.432;20.662;2023-04-10T02:58:20;20.33;;;13.45;;
36359;SDS011;22388;52.432;20.662;2023-04-10T03:00:49;22.05;;;14.88;;
36359;SDS011;22388;52.432;20.662;2023-04-10T03:03:15;26.70;;;18.33;;
36359;SDS011;22388;52.432;20.662;2023-04-10T03:05:43;22.23;;;15.32;;
36359;SDS011;22388;52.432;20.662;2023-04-10T03:08:11;24.33;;;14.63;;
36359;SDS011;22388;52.432;20.662;2023-04-10T03:10:37;23.17;;;15.80;;
36359;SDS011;22388;52.432;20.662;2023-04-10T03:13:03;23.73;;;15.68;;
36359;SDS011;22388;52.432;20.662;2023-04-10T03:15:28;25.50;;;16.50;;
36359;SDS011;22388;52.432;20.662;2023-04-10T03:17:54;23.52;;;15.10;;
36359;SDS011;22388;52.432;20.662;2023-04-10T03:20:20;27.35;;;17.80;;
36359;SDS011;22388;52.432;20.662;2023-04-10T03:22:46;27.58;;;18.08;;
36359;SDS011;22388;52.432;20.662;2023-04-10T03:25:11;27.38;;;18.17;;
36359;SDS011;22388;52.432;20.662;2023-04-10T03:27:37;28.80;;;19.33;;
36359;SDS011;22388;52.432;20.662;2023-04-10T03:30:03;31.40;;;19.63;;
36359;SDS011;22388;52.432;20.662;2023-04-10T03:32:29;30.95;;;21.70;;
36359;SDS011;22388;52.432;20.662;2023-04-10T03:34:56;31.15;;;20.55;;
36359;SDS011;22388;52.432;20.662;2023-04-10T03:37:22;26.92;;;19.90;;
36359;SDS011;22388;52.432;20.662;2023-04-10T03:39:48;30.20;;;20.77;;
36359;SDS011;22388;52.432;20.662;2023-04-10T03:42:14;28.60;;;20.08;;
36359;SDS011;22388;52.432;20.662;2023-04-10T03:44:39;27.15;;;20.05;;
36359;SDS011;22388;52.432;20.662;2023-04-10T03:47:05;27.08;;;18.27;;
36359;SDS011;22388;52.432;20.662;2023-04-10T03:49:30;23.90;;;17.65;;
36359;SDS011;22388;52.432;20.662;2023-04-10T03:51:56;26.00;;;18.20;;
36359;SDS011;22388;52.432;20.662;2023-04-10T03:54:21;26.75;;;17.70;;
36359;SDS011;22388;52.432;20.662;2023-04-10T03:56:47;25.50;;;18.27;;
36359;SDS011;22388;52.432;20.662;2023-04-10T03:59:13;30.38;;;18.88;;
36359;SDS011;22388;52.432;20.662;2023-04-10T04:01:39;26.08;;;18.38;;
36359;SDS011;22388;52.432;20.662;2023-04-10T04:04:05;27.73;;;19.08;;
36359;SDS011;22388;52.432;20.662;2023-04-10T04:06:30;29.27;;;21.10;;
36359;SDS011;22388;52.432;20.662;2023-04-10T04:08:56;28.88;;;19.88;;
36359;SDS011;22388;52.432;20.662;2023-04-10T04:11:22;31.65;;;19.38;;
36359;SDS011;22388;52.432;20.662;2023-04-10T04:13:47;27.92;;;18.50;;
36359;SDS011;22388;52.432;20.662;2023-04-10T04:16:13;26.10;;;18.75;;
36359;SDS011;22388;52.432;20.662;2023-04-10T04:18:38;26.30;;;18.27;;
36359;SDS011;22388;52.432;20.662;2023-04-10T04:21:04;27.83;;;19.15;;
36359;SDS011;22388;52.432;20.662;2023-04-10T04:23:32;25.88;;;18.70;;
36359;SDS011;22388;52.432;20.662;2023-04-10T04:26:01;29.73;;;19.23;;
36359;SDS011;22388;52.432;20.662;2023-04-10T04:28:26;29.23;;;19.20;;
36359;SDS011;22388;52.432;20.662;2023-04-10T04:30:52;29.30;;;20.70;;
36359;SDS011;22388;52.432;20.662;2023-04-10T04:33:17;27.20;;;18.70;;
36359;SDS011;22388;52.432;20.662;2023-04-10T04:35:43;26.52;;;19.25;;
36359;SDS011;22388;52.432;20.662;2023-04-10T04:38:08;31.45;;;19.98;;
36359;SDS011;22388;52.432;20.662;2023-04-10T04:40:34;26.65;;;20.00;;
36359;SDS011;22388;52.432;20.662;2023-04-10T04:43:00;28.95;;;20.65;;
36359;SDS011;22388;52.432;20.662;2023-04-10T04:45:25;28.55;;;20.13;;
36359;SDS011;22388;52.432;20.662;2023-04-10T04:47:51;27.52;;;20.88;;
36359;SDS011;22388;52.432;20.662;2023-04-10T04:50:16;28.77;;;20.65;;
36359;SDS011;22388;52.432;20.662;2023-04-10T04:52:42;29.35;;;19.58;;
36359;SDS011;22388;52.432;20.662;2023-04-10T04:55:08;27.55;;;20.20;;
36359;SDS011;22388;52.432;20.662;2023-04-10T04:57:34;29.70;;;19.95;;
36359;SDS011;22388;52.432;20.662;2023-04-10T04:59:59;31.70;;;20.73;;
36359;SDS011;22388;52.432;20.662;2023-04-10T05:02:25;28.73;;;20.63;;
36359;SDS011;22388;52.432;20.662;2023-04-10T05:04:50;27.63;;;20.73;;
36359;SDS011;22388;52.432;20.662;2023-04-10T05:07:16;33.10;;;20.48;;
36359;SDS011;22388;52.432;20.662;2023-04-10T05:09:42;28.83;;;20.35;;
36359;SDS011;22388;52.432;20.662;2023-04-10T05:12:07;27.00;;;19.45;;
36359;SDS011;22388;52.432;20.662;2023-04-10T05:14:33;31.15;;;19.88;;
36359;SDS011;22388;52.432;20.662;2023-04-10T05:16:58;27.20;;;19.42;;
36359;SDS011;22388;52.432;20.662;2023-04-10T05:19:24;28.70;;;20.05;;
36359;SDS011;22388;52.432;20.662;2023-04-10T05:21:50;26.65;;;19.20;;
36359;SDS011;22388;52.432;20.662;2023-04-10T05:24:15;25.42;;;20.50;;
36359;SDS011;22388;52.432;20.662;2023-04-10T05:26:42;31.38;;;21.17;;
36359;SDS011;22388;52.432;20.662;2023-04-10T05:29:08;26.13;;;20.42;;
36359;SDS011;22388;52.432;20.662;2023-04-10T05:31:33;27.25;;;20.13;;
36359;SDS011;22388;52.432;20.662;2023-04-10T05:33:59;25.40;;;20.00;;
36359;SDS011;22388;52.432;20.662;2023-04-10T05:36:24;28.23;;;20.23;;
36359;SDS011;22388;52.432;20.662;2023-04-10T05:38:50;31.15;;;21.33;;
36359;SDS011;22388;52.432;20.662;2023-04-10T05:41:16;25.55;;;20.00;;
36359;SDS011;22388;52.432;20.662;2023-04-10T05:43:41;26.48;;;20.50;;
36359;SDS011;22388;52.432;20.662;2023-04-10T05:46:07;25.65;;;19.75;;
36359;SDS011;22388;52.432;20.662;2023-04-10T05:48:33;24.60;;;19.83;;
36359;SDS011;22388;52.432;20.662;2023-04-10T05:50:58;26.15;;;19.90;;
36359;SDS011;22388;52.432;20.662;2023-04-10T05:53:27;25.85;;;18.90;;
36359;SDS011;22388;52.432;20.662;2023-04-10T05:55:56;26.33;;;19.45;;
36359;SDS011;22388;52.432;20.662;2023-04-10T05:58:25;21.00;;;16.90;;
36359;SDS011;22388;52.432;20.662;2023-04-10T06:00:56;23.23;;;16.98;;
36359;SDS011;22388;52.432;20.662;2023-04-10T06:03:22;23.15;;;17.17;;
36359;SDS011;22388;52.432;20.662;2023-04-10T06:05:48;24.23;;;18.63;;
36359;SDS011;22388;52.432;20.662;2023-04-10T06:08:14;22.73;;;17.27;;
36359;SDS011;22388;52.432;20.662;2023-04-10T06:10:39;23.98;;;17.10;;
36359;SDS011;22388;52.432;20.662;2023-04-10T06:13:05;25.17;;;16.83;;
36359;SDS011;22388;52.432;20.662;2023-04-10T06:15:30;25.60;;;16.90;;
36359;SDS011;22388;52.432;20.662;2023-04-10T06:17:56;22.67;;;16.38;;
36359;SDS011;22388;52.432;20.662;2023-04-10T06:20:21;23.33;;;15.52;;
36359;SDS011;22388;52.432;20.662;2023-04-10T06:22:47;23.48;;;16.60;;
36359;SDS011;22388;52.432;20.662;2023-04-10T06:25:13;21.63;;;16.55;;
36359;SDS011;22388;52.432;20.662;2023-04-10T06:27:38;25.20;;;16.52;;
36359;SDS011;22388;52.432;20.662;2023-04-10T06:30:04;19.65;;;15.45;;
36359;SDS011;22388;52.432;20.662;2023-04-10T06:32:30;18.58;;;15.18;;
36359;SDS011;22388;52.432;20.662;2023-04-10T06:34:56;19.33;;;15.00;;
36359;SDS011;22388;52.432;20.662;2023-04-10T06:37:28;21.83;;;15.23;;
36359;SDS011;22388;52.432;20.662;2023-04-10T06:40:04;20.00;;;14.25;;
36359;SDS011;22388;52.432;20.662;2023-04-10T06:42:34;18.13;;;13.70;;
36359;SDS011;22388;52.432;20.662;2023-04-10T06:45:00;18.73;;;13.63;;
36359;SDS011;22388;52.432;20.662;2023-04-10T06:47:26;19.88;;;13.77;;
36359;SDS011;22388;52.432;20.662;2023-04-10T06:49:51;20.00;;;14.88;;
36359;SDS011;22388;52.432;20.662;2023-04-10T06:52:17;18.85;;;14.15;;
36359;SDS011;22388;52.432;20.662;2023-04-10T06:54:42;17.92;;;13.73;;
36359;SDS011;22388;52.432;20.662;2023-04-10T06:57:08;18.40;;;13.27;;
36359;SDS011;22388;52.432;20.662;2023-04-10T06:59:34;18.85;;;13.85;;
36359;SDS011;22388;52.432;20.662;2023-04-10T07:02:01;16.27;;;11.88;;
36359;SDS011;22388;52.432;20.662;2023-04-10T07:04:27;15.45;;;11.55;;
36359;SDS011;22388;52.432;20.662;2023-04-10T07:06:52;14.32;;;11.60;;
36359;SDS011;22388;52.432;20.662;2023-04-10T07:09:18;17.35;;;13.75;;
36359;SDS011;22388;52.432;20.662;2023-04-10T07:11:44;19.05;;;13.35;;
36359;SDS011;22388;52.432;20.662;2023-04-10T07:14:10;19.98;;;16.65;;
36359;SDS011;22388;52.432;20.662;2023-04-10T07:16:36;21.48;;;16.95;;
36359;SDS011;22388;52.432;20.662;2023-04-10T07:19:01;22.60;;;18.77;;
36359;SDS011;22388;52.432;20.662;2023-04-10T07:21:27;18.85;;;13.98;;
36359;SDS011;22388;52.432;20.662;2023-04-10T07:23:53;14.77;;;10.60;;
36359;SDS011;22388;52.432;20.662;2023-04-10T07:26:19;15.10;;;11.27;;
36359;SDS011;22388;52.432;20.662;2023-04-10T07:28:44;13.98;;;10.20;;
36359;SDS011;22388;52.432;20.662;2023-04-10T07:31:10;17.45;;;10.88;;
36359;SDS011;22388;52.432;20.662;2023-04-10T07:33:36;14.07;;;9.80;;
36359;SDS011;22388;52.432;20.662;2023-04-10T07:36:02;14.50;;;10.25;;
36359;SDS011;22388;52.432;20.662;2023-04-10T07:38:30;15.57;;;10.35;;
36359;SDS011;22388;52.432;20.662;2023-04-10T07:40:59;14.85;;;10.88;;
36359;SDS011;22388;52.432;20.662;2023-04-10T07:43:25;14.23;;;10.95;;
36359;SDS011;22388;52.432;20.662;2023-04-10T07:45:51;19.23;;;12.00;;
36359;SDS011;22388;52.432;20.662;2023-04-10T07:48:16;15.80;;;11.85;;
36359;SDS011;22388;52.432;20.662;2023-04-10T07:50:42;15.88;;;12.20;;
36359;SDS011;22388;52.432;20.662;2023-04-10T07:53:08;13.77;;;10.20;;
36359;SDS011;22388;52.432;20.662;2023-04-10T07:55:41;17.20;;;9.65;;
36359;SDS011;22388;52.432;20.662;2023-04-10T07:58:08;14.73;;;9.73;;
36359;SDS011;22388;52.432;20.662;2023-04-10T08:00:33;13.68;;;10.90;;
36359;SDS011;22388;52.432;20.662;2023-04-10T08:02:59;14.27;;;11.10;;
36359;SDS011;22388;52.432;20.662;2023-04-10T08:05:26;19.67;;;16.23;;
36359;SDS011;22388;52.432;20.662;2023-04-10T08:07:51;16.70;;;12.32;;
36359;SDS011;22388;52.432;20.662;2023-04-10T08:10:17;18.40;;;15.13;;
36359;SDS011;22388;52.432;20.662;2023-04-10T08:12:43;18.42;;;14.98;;
36359;SDS011;22388;52.432;20.662;2023-04-10T08:15:08;18.88;;;14.30;;
36359;SDS011;22388;52.432;20.662;2023-04-10T08:17:35;18.67;;;14.80;;
36359;SDS011;22388;52.432;20.662;2023-04-10T08:20:01;15.15;;;11.68;;
36359;SDS011;22388;52.432;20.662;2023-04-10T08:22:27;15.27;;;11.57;;
36359;SDS011;22388;52.432;20.662;2023-04-10T08:24:53;13.95;;;10.95;;
36359;SDS011;22388;52.432;20.662;2023-04-10T08:27:20;16.17;;;9.82;;
36359;SDS011;22388;52.432;20.662;2023-04-10T08:29:45;15.55;;;10.40;;
36359;SDS011;22388;52.432;20.662;2023-04-10T08:32:11;13.23;;;10.02;;
36359;SDS011;22388;52.432;20.662;2023-04-10T08:34:36;17.75;;;9.95;;
36359;SDS011;22388;52.432;20.662;2023-04-10T08:37:05;12.82;;;9.93;;
36359;SDS011;22388;52.432;20.662;2023-04-10T08:39:33;12.98;;;9.60;;
36359;SDS011;22388;52.432;20.662;2023-04-10T08:42:00;13.23;;;9.75;;
36359;SDS011;22388;52.432;20.662;2023-04-10T08:44:26;14.98;;;10.18;;
36359;SDS011;22388;52.432;20.662;2023-04-10T08:46:51;13.73;;;9.52;;
36359;SDS011;22388;52.432;20.662;2023-04-10T08:49:25;14.07;;;10.23;;
36359;SDS011;22388;52.432;20.662;2023-04-10T08:51:55;13.45;;;10.27;;
36359;SDS011;22388;52.432;20.662;2023-04-10T08:54:26;13.23;;;10.07;;
36359;SDS011;22388;52.432;20.662;2023-04-10T08:56:54;17.42;;;10.02;;
36359;SDS011;22388;52.432;20.662;2023-04-10T08:59:21;12.75;;;9.55;;
36359;SDS011;22388;52.432;20.662;2023-04-10T09:01:47;14.95;;;10.27;;
36359;SDS011;22388;52.432;20.662;2023-04-10T09:04:13;15.10;;;9.60;;
36359;SDS011;22388;52.432;20.662;2023-04-10T09:06:39;13.88;;;9.38;;
36359;SDS011;22388;52.432;20.662;2023-04-10T09:09:05;12.85;;;9.05;;
36359;SDS011;22388;52.432;20.662;2023-04-10T09:14:31;12.93;;;8.27;;
36359;SDS011;22388;52.432;20.662;2023-04-10T09:19:45;13.15;;;7.32;;
36359;SDS011;22388;52.432;20.662;2023-04-10T09:22:18;10.35;;;6.53;;
36359;SDS011;22388;52.432;20.662;2023-04-10T09:24:54;10.20;;;6.28;;
36359;SDS011;22388;52.432;20.662;2023-04-10T09:27:29;10.15;;;6.30;;
36359;SDS011;22388;52.432;20.662;2023-04-10T09:30:03;10.63;;;6.90;;
36359;SDS011;22388;52.432;20.662;2023-04-10T09:32:47;11.68;;;7.13;;
36359;SDS011;22388;52.432;20.662;2023-04-10T09:35:13;11.55;;;6.90;;
36359;SDS011;22388;52.432;20.662;2023-04-10T09:37:40;9.75;;;6.45;;
36359;SDS011;22388;52.432;20.662;2023-04-10T09:40:18;12.38;;;6.80;;
36359;SDS011;22388;52.432;20.662;2023-04-10T09:42:48;12.93;;;6.47;;
36359;SDS011;22388;52.432;20.662;2023-04-10T09:45:14;8.00;;;5.65;;
36359;SDS011;22388;52.432;20.662;2023-04-10T09:47:59;9.23;;;5.68;;
36359;SDS011;22388;52.432;20.662;2023-04-10T09:50:33;10.60;;;5.60;;
36359;SDS011;22388;52.432;20.662;2023-04-10T09:52:59;11.27;;;5.30;;
36359;SDS011;22388;52.432;20.662;2023-04-10T09:55:25;9.05;;;4.55;;
36359;SDS011;22388;52.432;20.662;2023-04-10T09:57:51;12.30;;;4.88;;
36359;SDS011;22388;52.432;20.662;2023-04-10T10:00:16;11.77;;;4.93;;
36359;SDS011;22388;52.432;20.662;2023-04-10T10:02:42;12.65;;;4.60;;
36359;SDS011;22388;52.432;20.662;2023-04-10T10:05:08;13.20;;;4.90;;
36359;SDS011;22388;52.432;20.662;2023-04-10T10:07:34;8.25;;;4.90;;
36359;SDS011;22388;52.432;20.662;2023-04-10T10:10:01;8.85;;;4.93;;
36359;SDS011;22388;52.432;20.662;2023-04-10T10:20:51;8.82;;;4.72;;
36359;SDS011;22388;52.432;20.662;2023-04-10T10:23:18;10.18;;;4.55;;
36359;SDS011;22388;52.432;20.662;2023-04-10T10:25:44;9.27;;;4.43;;
36359;SDS011;22388;52.432;20.662;2023-04-10T10:28:13;7.10;;;4.13;;
36359;SDS011;22388;52.432;20.662;2023-04-10T10:30:39;10.68;;;4.38;;
36359;SDS011;22388;52.432;20.662;2023-04-10T10:33:05;11.15;;;4.78;;
36359;SDS011;22388;52.432;20.662;2023-04-10T10:35:34;7.25;;;4.25;;
36359;SDS011;22388;52.432;20.662;2023-04-10T10:38:01;11.45;;;5.43;;
36359;SDS011;22388;52.432;20.662;2023-04-10T10:40:28;10.02;;;4.97;;
36359;SDS011;22388;52.432;20.662;2023-04-10T10:43:04;8.18;;;4.90;;
36359;SDS011;22388;52.432;20.662;2023-04-10T10:45:57;16.20;;;4.75;;
36359;SDS011;22388;52.432;20.662;2023-04-10T10:48:26;9.77;;;4.50;;
36359;SDS011;22388;52.432;20.662;2023-04-10T10:50:56;11.85;;;4.40;;
36359;SDS011;22388;52.432;20.662;2023-04-10T11:01:15;8.82;;;3.60;;
36359;SDS011;22388;52.432;20.662;2023-04-10T11:03:41;9.63;;;4.43;;
36359;SDS011;22388;52.432;20.662;2023-04-10T11:06:09;10.80;;;4.55;;
36359;SDS011;22388;52.432;20.662;2023-04-10T11:08:40;11.73;;;3.50;;
36359;SDS011;22388;52.432;20.662;2023-04-10T11:21:26;7.82;;;4.40;;
36359;SDS011;22388;52.432;20.662;2023-04-10T11:31:45;7.05;;;3.65;;
36359;SDS011;22388;52.432;20.662;2023-04-10T11:34:12;7.05;;;3.47;;
36359;SDS011;22388;52.432;20.662;2023-04-10T11:36:40;8.23;;;3.60;;
36359;SDS011;22388;52.432;20.662;2023-04-10T11:39:08;5.00;;;3.28;;
36359;SDS011;22388;52.432;20.662;2023-04-10T11:41:38;6.20;;;3.47;;
36359;SDS011;22388;52.432;20.662;2023-04-10T11:44:08;10.43;;;3.38;;
36359;SDS011;22388;52.432;20.662;2023-04-10T11:46:36;13.80;;;6.75;;
36359;SDS011;22388;52.432;20.662;2023-04-10T11:49:06;5.63;;;3.10;;
36359;SDS011;22388;52.432;20.662;2023-04-10T11:51:36;7.05;;;3.08;;
36359;SDS011;22388;52.432;20.662;2023-04-10T11:54:03;10.85;;;3.47;;
36359;SDS011;22388;52.432;20.662;2023-04-10T11:56:36;6.93;;;3.50;;
36359;SDS011;22388;52.432;20.662;2023-04-10T11:59:04;7.40;;;3.22;;
36359;SDS011;22388;52.432;20.662;2023-04-10T12:01:40;7.75;;;3.70;;
36359;SDS011;22388;52.432;20.662;2023-04-10T12:04:40;7.97;;;3.90;;
36359;SDS011;22388;52.432;20.662;2023-04-10T12:06:58;7.10;;;2.97;;
36359;SDS011;22388;52.432;20.662;2023-04-10T12:09:24;8.13;;;3.33;;
36359;SDS011;22388;52.432;20.662;2023-04-10T12:11:55;13.13;;;3.40;;
36359;SDS011;22388;52.432;20.662;2023-04-10T12:14:28;6.78;;;3.33;;
36359;SDS011;22388;52.432;20.662;2023-04-10T12:16:58;6.65;;;2.97;;
36359;SDS011;22388;52.432;20.662;2023-04-10T12:19:24;7.75;;;3.15;;
36359;SDS011;22388;52.432;20.662;2023-04-10T12:21:50;8.13;;;3.70;;
36359;SDS011;22388;52.432;20.662;2023-04-10T12:27:23;9.30;;;3.67;;
36359;SDS011;22388;52.432;20.662;2023-04-10T12:29:53;5.82;;;3.15;;
36359;SDS011;22388;52.432;20.662;2023-04-10T12:32:20;5.85;;;3.22;;
36359;SDS011;22388;52.432;20.662;2023-04-10T12:34:49;5.53;;;3.08;;
36359;SDS011;22388;52.432;20.662;2023-04-10T12:37:21;7.00;;;2.92;;
36359;SDS011;22388;52.432;20.662;2023-04-10T12:39:47;8.93;;;2.97;;
36359;SDS011;22388;52.432;20.662;2023-04-10T12:42:22;6.18;;;2.55;;
36359;SDS011;22388;52.432;20.662;2023-04-10T12:44:53;11.05;;;4.88;;
36359;SDS011;22388;52.432;20.662;2023-04-10T12:47:23;7.43;;;3.70;;
36359;SDS011;22388;52.432;20.662;2023-04-10T12:52:31;6.18;;;2.78;;
36359;SDS011;22388;52.432;20.662;2023-04-10T12:55:07;7.95;;;3.38;;
36359;SDS011;22388;52.432;20.662;2023-04-10T12:57:40;8.05;;;2.85;;
36359;SDS011;22388;52.432;20.662;2023-04-10T13:00:07;6.78;;;2.65;;
36359;SDS011;22388;52.432;20.662;2023-04-10T13:02:37;6.78;;;3.00;;
36359;SDS011;22388;52.432;20.662;2023-04-10T13:05:03;6.65;;;3.08;;
36359;SDS011;22388;52.432;20.662;2023-04-10T13:07:30;5.60;;;2.80;;
36359;SDS011;22388;52.432;20.662;2023-04-10T13:09:56;6.50;;;3.05;;
36359;SDS011;22388;52.432;20.662;2023-04-10T13:12:22;5.38;;;2.70;;
36359;SDS011;22388;52.432;20.662;2023-04-10T13:14:48;8.85;;;3.10;;
36359;SDS011;22388;52.432;20.662;2023-04-10T13:17:14;6.60;;;2.65;;
36359;SDS011;22388;52.432;20.662;2023-04-10T13:19:40;5.00;;;2.83;;
36359;SDS011;22388;52.432;20.662;2023-04-10T13:22:06;9.40;;;2.80;;
36359;SDS011;22388;52.432;20.662;2023-04-10T13:24:31;9.32;;;3.53;;
36359;SDS011;22388;52.432;20.662;2023-04-10T13:26:57;7.30;;;3.08;;
36359;SDS011;22388;52.432;20.662;2023-04-10T13:29:23;4.93;;;3.00;;
36359;SDS011;22388;52.432;20.662;2023-04-10T13:31:48;5.68;;;2.90;;
36359;SDS011;22388;52.432;20.662;2023-04-10T13:34:15;7.47;;;3.03;;
36359;SDS011;22388;52.432;20.662;2023-04-10T13:36:40;7.68;;;2.78;;
36359;SDS011;22388;52.432;20.662;2023-04-10T13:39:06;6.93;;;2.70;;
36359;SDS011;22388;52.432;20.662;2023-04-10T13:41:32;6.30;;;3.42;;
36359;SDS011;22388;52.432;20.662;2023-04-10T13:43:58;10.38;;;3.20;;
36359;SDS011;22388;52.432;20.662;2023-04-10T13:46:24;5.60;;;2.90;;
36359;SDS011;22388;52.432;20.662;2023-04-10T13:48:50;7.70;;;2.60;;
36359;SDS011;22388;52.432;20.662;2023-04-10T13:51:15;7.22;;;2.75;;
36359;SDS011;22388;52.432;20.662;2023-04-10T13:53:41;8.23;;;2.83;;
36359;SDS011;22388;52.432;20.662;2023-04-10T13:56:07;6.82;;;3.20;;
36359;SDS011;22388;52.432;20.662;2023-04-10T13:58:33;5.93;;;2.92;;
36359;SDS011;22388;52.432;20.662;2023-04-10T14:00:59;7.60;;;2.72;;
36359;SDS011;22388;52.432;20.662;2023-04-10T14:03:25;7.18;;;2.90;;
36359;SDS011;22388;52.432;20.662;2023-04-10T14:05:51;8.45;;;2.70;;
36359;SDS011;22388;52.432;20.662;2023-04-10T14:08:17;6.72;;;3.67;;
36359;SDS011;22388;52.432;20.662;2023-04-10T14:10:42;12.68;;;3.35;;
36359;SDS011;22388;52.432;20.662;2023-04-10T14:13:10;6.25;;;2.75;;
36359;SDS011;22388;52.432;20.662;2023-04-10T14:15:36;8.85;;;2.78;;
36359;SDS011;22388;52.432;20.662;2023-04-10T14:18:01;6.13;;;2.60;;
36359;SDS011;22388;52.432;20.662;2023-04-10T14:20:27;6.60;;;2.75;;
36359;SDS011;22388;52.432;20.662;2023-04-10T14:22:53;8.00;;;2.85;;
36359;SDS011;22388;52.432;20.662;2023-04-10T14:25:18;5.03;;;2.58;;
36359;SDS011;22388;52.432;20.662;2023-04-10T14:27:44;4.55;;;2.25;;
36359;SDS011;22388;52.432;20.662;2023-04-10T14:30:10;5.80;;;2.30;;
36359;SDS011;22388;52.432;20.662;2023-04-10T14:32:37;5.43;;;2.70;;
36359;SDS011;22388;52.432;20.662;2023-04-10T14:35:03;4.85;;;2.60;;
36359;SDS011;22388;52.432;20.662;2023-04-10T14:37:29;6.20;;;2.40;;
36359;SDS011;22388;52.432;20.662;2023-04-10T14:39:54;7.30;;;2.58;;
36359;SDS011;22388;52.432;20.662;2023-04-10T14:42:20;4.60;;;2.45;;
36359;SDS011;22388;52.432;20.662;2023-04-10T14:44:47;5.93;;;2.38;;
36359;SDS011;22388;52.432;20.662;2023-04-10T14:47:13;6.18;;;2.60;;
36359;SDS011;22388;52.432;20.662;2023-04-10T14:49:39;6.70;;;2.40;;
36359;SDS011;22388;52.432;20.662;2023-04-10T14:52:05;4.75;;;2.33;;
36359;SDS011;22388;52.432;20.662;2023-04-10T14:54:31;7.70;;;2.63;;
36359;SDS011;22388;52.432;20.662;2023-04-10T14:56:56;4.15;;;2.47;;
36359;SDS011;22388;52.432;20.662;2023-04-10T14:59:22;4.93;;;2.22;;
36359;SDS011;22388;52.432;20.662;2023-04-10T15:01:47;7.75;;;2.63;;
36359;SDS011;22388;52.432;20.662;2023-04-10T15:04:13;4.90;;;2.42;;
36359;SDS011;22388;52.432;20.662;2023-04-10T15:06:39;6.38;;;2.50;;
36359;SDS011;22388;52.432;20.662;2023-04-10T15:09:04;6.72;;;2.50;;
36359;SDS011;22388;52.432;20.662;2023-04-10T15:11:30;4.38;;;2.53;;
36359;SDS011;22388;52.432;20.662;2023-04-10T15:13:57;5.43;;;2.45;;
36359;SDS011;22388;52.432;20.662;2023-04-10T15:16:23;6.22;;;2.47;;
36359;SDS011;22388;52.432;20.662;2023-04-10T15:18:48;4.25;;;2.50;;